Latest Weather Observations for Clermont Airport

IDQ60801

Issued at 7:42 am EST Wednesday 23 October 2019 (issued every 10 minutes, with the page automatically refreshed every 10 minutes)

About weather observations | Map of weather stations | Latest weather observations for QLD | Other Formats
Station Details ID: 035124 Name: CLERMONT AIRPORT Lat: -22.78 Lon: 147.62 Height: 270.27 m
Data from the previous 72 hours. | See also: Recent months at Clermont Airport
Date/Time
EST
Temp
°C
App
Temp
°C
Dew
Point
°C
Rel
Hum
%
Delta-T
°C
Wind Press
QNH
hPa
Press
MSL
hPa
Rain since
9am
mm
Dir  Spd
km/h
Gust
km/h
Spd
kts
Gust
kts
23/07:30am 20.3 19.0 11.2 56 5.0 ESE 9 15 5 8 1022.9 1021.5 0.0
23/07:00am 19.2 18.3 11.5 61 4.3 SSE 7 15 4 8 1022.6 1021.2 0.0
23/06:30am 17.9 17.3 11.7 67 3.4 S 6 9 3 5 1022.3 1020.9 0.0
23/06:00am 15.4 15.0 11.0 75 2.4 S 4 6 2 3 1021.8 1020.5 0.0
23/05:30am 14.9 14.7 10.5 75 2.3 S 2 2 1 1 1021.4 1020.1 0.0
23/05:00am 16.0 16.3 11.0 72 2.7 CALM 0 0 0 0 1020.9 1019.6 0.0
23/04:30am 17.1 17.2 11.4 69 3.1 SSE 2 7 1 4 1020.8 1019.5 0.0
23/04:00am 17.6 17.3 11.6 68 3.3 E 4 7 2 4 1020.5 1019.2 0.0
23/03:30am 17.6 18.2 11.9 69 3.2 CALM 0 4 0 2 1020.5 1019.2 0.0
23/03:00am 18.1 18.0 12.1 68 3.3 ESE 4 6 2 3 1020.3 1019.0 0.0
23/02:30am 18.4 18.2 11.9 66 3.6 ENE 4 7 2 4 1020.5 1019.2 0.0
23/02:00am 19.0 18.5 12.0 64 3.9 ENE 6 9 3 5 1020.8 1019.5 0.0
23/01:30am 19.4 18.4 12.2 63 4.1 ENE 9 15 5 8 1021.0 1019.7 0.0
23/01:00am 19.8 18.1 12.3 62 4.2 ENE 13 22 7 12 1021.1 1019.8 0.0
23/12:30am 20.1 18.7 12.1 60 4.5 ENE 11 19 6 10 1021.2 1019.9 0.0
23/12:00am 20.4 19.3 11.9 58 4.8 ENE 9 17 5 9 1021.2 1019.9 0.0
 
Date/Time
EST
Temp
°C
App
Temp
°C
Dew
Point
°C
Rel
Hum
%
Delta-T
°C
Wind Press
QNH
hPa
Press
MSL
hPa
Rain since
9am
mm
Dir  Spd
km/h
Gust
km/h
Spd
kts
Gust
kts
22/11:30pm 20.8 18.9 11.7 56 5.1 NE 13 24 7 13 1021.2 1019.9 0.0
22/11:00pm 21.1 19.9 11.7 55 5.3 NE 9 19 5 10 1021.5 1020.2 0.0
22/10:30pm 21.6 19.6 11.6 53 5.6 NE 13 26 7 14 1021.4 1020.1 0.0
22/10:00pm 22.1 20.6 11.8 52 5.8 NNE 11 22 6 12 1021.1 1019.8 0.0
22/09:30pm 22.8 20.8 11.5 49 6.4 NE 13 22 7 12 1020.8 1019.5 0.0
22/09:00pm 23.5 20.7 11.2 46 6.9 NE 17 28 9 15 1020.4 1019.1 0.0
22/08:30pm 23.1 20.2 1.5 24 10.2 E 6 9 3 5 1020.2 1018.9 0.0
22/08:00pm 24.3 21.9 1.9 23 10.7 ESE 4 9 2 5 1019.7 1018.3 0.0
22/07:30pm 25.4 22.5 1.5 21 11.5 ESE 6 9 3 5 1019.4 1018.0 0.0
22/07:00pm 26.1 23.1 2.1 21 11.7 ESE 7 13 4 7 1019.2 1017.8 0.0
22/06:30pm 27.2 23.8 1.6 19 12.5 ESE 9 19 5 10 1018.9 1017.5 0.0
22/06:00pm 28.0 24.2 1.5 18 12.9 ESE 11 22 6 12 1018.5 1017.1 0.0
22/05:30pm 28.8 24.2 1.3 17 13.5 SE 15 22 8 12 1018.1 1016.7 0.0
22/05:00pm 29.5 24.5 1.1 16 13.9 SE 17 26 9 14 1017.5 1016.2 0.0
22/04:30pm 29.8 25.4 0.4 15 14.3 ESE 13 26 7 14 1017.4 1016.1 0.0
22/04:00pm 29.8 25.3 2.1 17 13.8 SE 15 30 8 16 1017.2 1015.9 0.0
22/03:30pm 29.9 25.4 2.2 17 13.9 SE 15 22 8 12 1017.3 1016.0 0.0
22/03:00pm 30.4 25.7 3.4 18 13.9 ESE 17 32 9 17 1017.5 1016.2 0.0
22/02:30pm 29.9 26.2 4.5 20 13.3 ESE 13 30 7 16 1017.9 1016.6 0.0
22/02:00pm 29.3 24.8 4.0 20 13.0 SSE 17 33 9 18 1018.2 1016.8 0.0
22/01:30pm 29.2 24.7 4.0 20 13.0 SE 17 32 9 17 1018.8 1017.4 0.0
22/01:00pm 29.8 25.1 5.1 21 13.0 SE 19 30 10 16 1019.3 1017.9 0.0
22/12:30pm 28.7 25.1 6.7 25 11.8 ESE 15 24 8 13 1019.8 1018.4 0.0
22/12:00pm 28.1 24.4 7.9 28 11.0 SE 17 26 9 14 1020.4 1019.1 0.0
22/11:30am 26.6 23.5 9.0 33 9.7 E 15 24 8 13 1021.0 1019.7 0.0
22/11:00am 26.9 25.0 10.6 36 9.2 E 11 20 6 11 1021.5 1020.2 0.0
22/10:30am 25.3 23.1 10.7 40 8.3 ESE 13 28 7 15 1022.2 1020.8 0.0
22/10:00am 25.5 23.9 12.7 45 7.5 SE 13 24 7 13 1022.7 1021.3 0.0
22/09:30am 24.9 23.7 12.8 47 7.1 E 11 20 6 11 1022.9 1021.5 0.0
22/09:00am 23.6 22.0 12.9 51 6.2 ESE 13 20 7 11 1023.2 1021.9 0.0
22/08:30am 21.9 20.9 13.3 58 5.0 ESE 11 19 6 10 1023.3 1022.0 0.0
22/08:00am 21.1 19.5 13.8 63 4.3 ESE 15 22 8 12 1023.0 1021.6 0.0
22/07:30am 21.0 19.8 13.9 64 4.2 ESE 13 28 7 15 1022.7 1021.3 0.0
22/07:00am 19.8 19.3 13.7 68 3.5 SE 9 15 5 8 1022.6 1021.2 0.0
22/06:30am 18.7 18.4 13.3 71 3.1 SSE 7 9 4 5 1022.3 1020.9 0.0
22/06:00am 18.0 17.8 12.9 72 2.9 SE 6 9 3 5 1022.1 1020.7 0.0
22/05:30am 18.1 17.3 12.8 71 3.0 SSE 9 13 5 7 1021.8 1020.5 0.0
22/05:00am 18.5 18.1 13.1 71 3.1 ESE 7 13 4 7 1021.3 1020.0 0.0
22/04:30am 18.5 18.5 13.6 73 2.8 ESE 6 11 3 6 1020.9 1019.6 0.0
22/04:00am 18.4 18.6 13.1 71 3.0 ESE 4 6 2 3 1020.8 1019.5 0.0
22/03:30am 18.7 18.2 12.5 67 3.5 E 7 11 4 6 1020.5 1019.2 0.0
22/03:00am 19.1 18.6 12.6 66 3.7 ESE 7 13 4 7 1020.5 1019.2 0.0
22/02:30am 19.5 19.2 12.8 65 3.8 E 6 9 3 5 1020.5 1019.2 0.0
22/02:00am 19.9 19.5 12.9 64 4.0 E 7 17 4 9 1020.4 1019.1 0.0
22/01:30am 20.4 19.7 13.1 63 4.2 E 9 17 5 9 1020.5 1019.2 0.0
22/01:00am 20.6 20.3 13.3 63 4.2 ENE 7 13 4 7 1020.7 1019.4 0.0
22/12:30am 21.0 20.3 13.2 61 4.5 ENE 9 17 5 9 1020.8 1019.5 0.0
22/12:00am 21.4 20.4 13.3 60 4.7 ENE 11 24 6 13 1021.1 1019.8 0.0
 
Date/Time
EST
Temp
°C
App
Temp
°C
Dew
Point
°C
Rel
Hum
%
Delta-T
°C
Wind Press
QNH
hPa
Press
MSL
hPa
Rain since
9am
mm
Dir  Spd
km/h
Gust
km/h
Spd
kts
Gust
kts
21/11:30pm 21.7 20.6 13.1 58 5.0 NE 11 19 6 10 1021.1 1019.8 0.0
21/11:00pm 22.1 20.4 12.6 55 5.5 ENE 13 28 7 15 1021.1 1019.8 0.0
21/10:30pm 22.6 20.7 10.4 46 6.8 NE 11 20 6 11 1020.9 1019.6 0.0
21/10:00pm 23.1 21.2 7.6 37 8.2 NE 7 17 4 9 1020.7 1019.4 0.0
21/09:30pm 24.0 20.6 7.6 35 8.7 NE 15 22 8 12 1020.5 1019.2 0.0
21/09:00pm 24.4 22.0 8.8 37 8.5 ENE 11 24 6 13 1020.2 1018.9 0.0
21/08:30pm 25.0 22.4 10.8 41 8.0 ENE 15 26 8 14 1019.7 1018.3 0.0
21/08:00pm 25.8 22.6 11.2 40 8.3 NE 19 32 10 17 1019.2 1017.8 0.0
21/07:30pm 27.0 24.0 4.1 23 11.7 ESE 9 24 5 13 1018.8 1017.4 0.0
21/07:00pm 27.8 24.7 3.5 21 12.3 SE 9 15 5 8 1018.2 1016.8 0.0
21/06:30pm 28.6 25.0 2.7 19 13.0 SE 11 19 6 10 1017.7 1016.4 0.0
21/06:00pm 29.5 25.3 1.9 17 13.7 SE 13 22 7 12 1017.3 1016.0 0.0
21/05:30pm 30.3 25.8 -0.1 14 14.7 SE 13 20 7 11 1016.9 1015.6 0.0
21/05:00pm 30.4 26.6 1.8 16 14.3 SE 11 17 6 9 1016.5 1015.1 0.0
21/04:30pm 31.7 27.8 1.0 14 15.3 ESE 11 22 6 12 1016.3 1014.9 0.0
21/04:00pm 30.9 25.9 1.3 15 14.7 SE 17 30 9 16 1016.3 1014.9 0.0
21/03:30pm 31.0 27.0 0.4 14 15.0 E 11 26 6 14 1016.4 1015.0 0.0
21/03:00pm 31.4 28.2 0.7 14 15.1 E 7 17 4 9 1016.4 1015.0 0.0
21/02:30pm 31.3 26.6 0.6 14 15.1 SE 15 32 8 17 1016.7 1015.4 0.0
21/02:00pm 31.6 27.8 1.8 15 15.0 E 11 22 6 12 1017.1 1015.8 0.0
21/01:30pm 31.2 26.8 0.6 14 15.1 SE 13 24 7 13 1017.6 1016.3 0.0
21/01:00pm 30.3 26.8 3.4 18 13.8 SE 11 24 6 13 1017.9 1016.6 0.0
21/12:30pm 30.5 26.5 5.0 20 13.5 ESE 15 26 8 14 1018.6 1017.2 0.0
21/12:00pm 29.9 27.6 8.9 27 11.8 E 11 24 6 13 1019.2 1017.8 0.0
21/11:30am 29.0 26.6 10.2 31 10.7 ESE 13 28 7 15 1019.7 1018.3 0.0
21/11:00am 27.9 25.6 10.6 34 9.9 ENE 13 22 7 12 1020.2 1018.9 0.0
21/10:30am 26.6 24.1 11.1 38 8.9 ESE 15 26 8 14 1020.7 1019.4 0.0
21/10:00am 26.0 23.9 12.5 43 7.9 E 15 32 8 17 1021.3 1020.0 0.0
21/09:30am 25.6 23.9 12.4 43 7.7 ESE 13 20 7 11 1021.5 1020.2 0.0
21/09:00am 24.5 23.0 13.1 49 6.7 ESE 13 22 7 12 1021.6 1020.3 0.0
21/08:30am 23.5 22.4 13.1 52 6.1 ESE 11 19 6 10 1021.3 1020.0 0.0
21/08:00am 22.4 20.4 10.2 46 6.7 SE 11 19 6 10 1021.5 1020.2 0.0
21/07:30am 21.2 18.1 7.4 41 7.2 SE 13 19 7 10 1021.2 1019.9 0.0
21/07:00am 20.5 17.0 3.7 33 8.1 SE 11 19 6 10 1020.9 1019.6 0.0
21/06:30am 19.4 15.5 3.6 35 7.6 SSE 13 19 7 10 1020.7 1019.4 0.0
21/06:00am 18.6 15.9 5.5 42 6.5 SSE 9 17 5 9 1020.4 1019.1 0.0
21/05:30am 18.2 16.6 8.2 52 5.2 SSE 6 9 3 5 1020.0 1018.7 0.0
21/05:00am 18.8 17.1 8.5 51 5.4 SSE 7 13 4 7 1019.6 1018.2 0.0
21/04:30am 18.8 17.2 8.7 52 5.3 SSE 7 13 4 7 1019.1 1017.7 0.0
21/04:00am 18.8 17.1 7.6 48 5.8 SSE 6 7 3 4 1018.9 1017.5 0.0
21/03:30am 19.3 17.3 7.1 45 6.3 SSE 7 11 4 6 1018.7 1017.3 0.0
21/03:00am 19.8 17.4 7.2 44 6.5 SSE 9 15 5 8 1018.6 1017.2 0.0
21/02:30am 17.5 13.8 2.3 36 7.0 S 11 17 6 9 1018.6 1017.2 0.0
21/02:00am 13.4 9.6 -5.7 26 7.1 SW 6 6 3 3 1017.7 1016.4 0.0
21/01:30am 13.8 10.3 -5.9 25 7.3 SSW 4 6 2 3 1017.6 1016.3 0.0
21/01:00am 14.6 11.8 -6.8 22 7.9 CALM 0 0 0 0 1017.6 1016.3 0.0
21/12:30am 15.3 11.4 -6.9 21 8.2 WSW 6 6 3 3 1017.8 1016.5 0.0
21/12:00am 14.9 10.7 -7.2 21 8.1 SW 7 9 4 5 1017.8 1016.5 0.0
 
Date/Time
EST
Temp
°C
App
Temp
°C
Dew
Point
°C
Rel
Hum
%
Delta-T
°C
Wind Press
QNH
hPa
Press
MSL
hPa
Rain since
9am
mm
Dir  Spd
km/h
Gust
km/h
Spd
kts
Gust
kts
20/11:30pm 14.9 12.1 -6.6 22 8.0 CALM 0 0 0 0 1017.7 1016.4 0.0
20/11:00pm 15.9 13.0 -7.7 19 8.6 CALM 0 0 0 0 1017.6 1016.3 0.0
20/10:30pm 15.6 12.3 -7.9 19 8.5 N 2 4 1 2 1017.6 1016.3 0.0
20/10:00pm 16.4 13.4 -8.7 17 9.0 CALM 0 0 0 0 1017.4 1016.1 0.0
20/09:30pm 16.9 14.0 -8.3 17 9.2 CALM 0 0 0 0 1017.3 1016.0 0.0
20/09:00pm 18.1 15.1 -8.9 15 9.9 CALM 0 0 0 0 1017.1 1015.8 0.0
20/08:30pm 20.0 16.8 -12.5 10 11.3 CALM 0 0 0 0 1017.0 1015.7 0.0
20/08:00pm 23.8 19.4 -12.4 8 13.2 S 6 7 3 4 1016.8 1015.5 0.0
20/07:30pm 22.5 18.6 -11.9 9 12.5 S 4 6 2 3 1016.5 1015.1 0.0
20/07:00pm 25.3 20.9 -12.9 7 14.0 SSW 6 7 3 4 1015.9 1014.5 0.0
20/06:30pm 28.4 23.3 -14.8 5 15.9 S 9 11 5 6 1015.5 1014.1 0.0
20/06:00pm 30.3 25.7 -13.5 5 16.8 S 7 11 4 6 1015.2 1013.8 0.0
20/05:30pm 31.5 26.0 -15.4 4 17.7 SSE 11 19 6 10 1014.8 1013.4 0.0
20/05:00pm 31.8 25.6 -15.2 4 17.8 SSW 15 24 8 13 1014.5 1013.1 0.0
20/04:30pm 32.1 26.3 -14.9 4 18.0 SSE 13 28 7 15 1014.4 1013.0 0.0
20/04:00pm 32.5 27.4 -14.7 4 18.2 S 9 26 5 14 1014.2 1012.8 0.0
20/03:30pm 32.7 26.5 -14.5 4 18.3 SSE 15 24 8 13 1014.4 1013.0 0.0
20/03:00pm 32.3 26.1 -14.8 4 18.1 S 15 24 8 13 1014.6 1013.2 0.0
20/02:30pm 33.0 28.0 -14.3 4 18.4 SSE 9 20 5 11 1014.7 1013.3 0.0
20/02:00pm 31.4 25.9 -15.4 4 17.6 S 11 22 6 12 1015.0 1013.6 0.0
20/01:30pm 32.2 26.1 -12.2 5 17.8 SSW 15 33 8 18 1015.3 1013.9 0.0
20/01:00pm 31.4 26.1 -12.7 5 17.3 SSW 11 22 6 12 1015.6 1014.2 0.0
20/12:30pm 31.9 25.8 -12.4 5 17.6 SE 15 28 8 15 1016.2 1014.8 0.0
20/12:00pm 31.5 25.0 -12.6 5 17.4 SE 17 28 9 15 1016.7 1015.4 0.0
20/11:30am 31.3 25.0 -10.5 6 17.1 SE 17 28 9 15 1017.3 1016.0 0.0
20/11:00am 30.1 23.3 -11.4 6 16.5 SE 19 30 10 16 1017.8 1016.5 0.0
20/10:30am 29.8 22.5 -11.6 6 16.3 SSE 22 35 12 19 1018.6 1017.2 0.0
20/10:00am 29.8 22.8 -11.6 6 16.3 SE 20 35 11 19 1018.8 1017.4 0.0
20/09:30am 28.9 21.6 -10.3 7 15.7 SE 22 41 12 22 1019.1 1017.7 0.0
20/09:00am 28.4 21.8 -9.0 8 15.2 SE 19 28 10 15 1019.2 1017.8 0.0
20/08:30am 26.0 20.9 -5.6 12 13.4 SE 13 26 7 14 1019.3 1017.9 0.0
20/08:00am 25.0 20.9 -3.4 15 12.4 E 9 17 5 9 1018.9 1017.5 0.0

Other formats

Comma delimited format used in spreadsheet applications
http://www.bom.gov.au/fwo/IDQ60801/IDQ60801.94395.axf

JavaScript Object Notation format (JSON) in row-major order
http://www.bom.gov.au/fwo/IDQ60801/IDQ60801.94395.json

Data quality

Most of these data are generated automatically and are frequently updated. Quality checks on data are not normally performed. It is possible for incorrect values to appear. Refer to information at About Latest Weather Observations and please check the disclaimer before using these data.